createdAt,value
2022-11-19T00:00:47.056Z,31.13
2022-11-19T00:01:48.661Z,30.02
2022-11-19T00:02:54.544Z,30.80
2022-11-19T00:03:56.544Z,30.38
2022-11-19T00:04:58.252Z,30.20
2022-11-19T00:06:05.403Z,29.23
2022-11-19T00:07:07.072Z,32.60
2022-11-19T00:08:09.625Z,28.13
2022-11-19T00:09:14.281Z,28.45
2022-11-19T00:10:16.345Z,26.17
2022-11-19T00:11:42.652Z,27.50
2022-11-19T00:12:56.475Z,28.42
2022-11-19T00:13:58.108Z,30.83
2022-11-19T00:14:59.829Z,25.85
2022-11-19T00:16:06.895Z,26.35
2022-11-19T00:17:08.513Z,27.05
2022-11-19T00:18:10.144Z,23.80
2022-11-19T00:19:12.512Z,27.23
2022-11-19T00:20:14.573Z,26.58
2022-11-19T00:21:16.191Z,26.73
2022-11-19T00:22:17.791Z,27.08
2022-11-19T00:23:19.405Z,28.27
2022-11-19T00:24:22.538Z,28.85
2022-11-19T00:25:27.438Z,24.67
2022-11-19T00:26:29.106Z,24.08
2022-11-19T00:27:31.330Z,24.63
2022-11-19T00:28:33.038Z,23.70
2022-11-19T00:29:34.669Z,25.50
2022-11-19T00:30:51.644Z,22.80
2022-11-19T00:31:53.269Z,24.08
2022-11-19T00:32:56.356Z,28.17
2022-11-19T00:33:58.120Z,20.17
2022-11-19T00:34:59.724Z,22.08
2022-11-19T00:36:02.202Z,21.88
2022-11-19T00:37:03.876Z,22.95
2022-11-19T00:38:05.748Z,21.00
2022-11-19T00:39:07.439Z,23.50
2022-11-19T00:40:11.870Z,20.13
2022-11-19T00:41:13.649Z,19.05
2022-11-19T00:42:15.266Z,19.10
2022-11-19T00:43:35.673Z,18.75
2022-11-19T00:44:37.693Z,20.90
2022-11-19T00:45:41.091Z,19.42
2022-11-19T00:46:42.675Z,21.02
2022-11-19T00:47:44.301Z,19.20
2022-11-19T00:48:47.805Z,19.30
2022-11-19T00:49:49.445Z,19.67
2022-11-19T00:50:51.088Z,17.80
2022-11-19T00:51:53.152Z,18.80
2022-11-19T00:52:54.828Z,17.90
2022-11-19T00:53:57.037Z,18.23
2022-11-19T00:54:58.597Z,17.77
2022-11-19T00:56:01.956Z,18.58
2022-11-19T00:57:03.656Z,18.17
2022-11-19T00:58:05.246Z,18.25
2022-11-19T00:59:07.199Z,20.35
2022-11-19T01:00:09.590Z,18.20
2022-11-19T01:01:12.319Z,17.80
2022-11-19T01:02:14.044Z,19.40
2022-11-19T01:03:15.656Z,17.90
2022-11-19T01:04:17.329Z,20.48
2022-11-19T01:05:18.969Z,17.10
2022-11-19T01:06:23.244Z,20.70
2022-11-19T01:07:25.046Z,17.80
2022-11-19T01:08:26.955Z,19.80
2022-11-19T01:09:29.450Z,18.50
2022-11-19T01:10:31.055Z,21.40
2022-11-19T01:11:35.174Z,18.92
2022-11-19T01:12:56.736Z,16.75
2022-11-19T01:13:59.372Z,17.38
2022-11-19T01:15:00.987Z,16.63
2022-11-19T01:16:12.155Z,17.25
2022-11-19T01:17:13.752Z,17.23
2022-11-19T01:18:15.858Z,19.08
2022-11-19T01:19:18.033Z,19.05
2022-11-19T01:20:20.050Z,18.50
2022-11-19T01:21:24.353Z,17.45
2022-11-19T01:22:26.170Z,14.68
2022-11-19T01:23:28.431Z,17.73
2022-11-19T01:24:30.103Z,16.30
2022-11-19T01:25:31.741Z,15.32
2022-11-19T01:26:33.582Z,15.23
2022-11-19T01:27:35.215Z,15.25
2022-11-19T01:28:37.279Z,14.93
2022-11-19T01:29:38.867Z,15.60
2022-11-19T01:30:41.987Z,14.93
2022-11-19T01:31:43.619Z,15.93
2022-11-19T01:32:45.250Z,17.67
2022-11-19T01:33:47.588Z,15.55
2022-11-19T01:34:50.102Z,15.25
2022-11-19T01:36:03.883Z,15.15
2022-11-19T01:37:05.494Z,16.05
2022-11-19T01:38:07.272Z,13.25
2022-11-19T01:39:08.875Z,12.60
2022-11-19T01:40:11.005Z,13.90
2022-11-19T01:41:12.619Z,12.93
2022-11-19T01:42:44.572Z,13.57
2022-11-19T01:44:00.348Z,14.35
2022-11-19T01:45:07.945Z,13.13
2022-11-19T01:46:11.746Z,14.38
2022-11-19T01:47:13.513Z,13.35
2022-11-19T01:48:21.877Z,12.88
2022-11-19T01:49:23.678Z,13.40
2022-11-19T01:50:26.537Z,13.23
2022-11-19T01:52:19.815Z,12.32
2022-11-19T01:58:53.155Z,13.50
2022-11-19T02:00:31.438Z,12.15
2022-11-19T02:01:39.192Z,12.02
2022-11-19T02:02:56.287Z,12.20
2022-11-19T02:04:29.955Z,11.77
2022-11-19T02:05:48.994Z,13.55
2022-11-19T02:07:16.947Z,13.20
2022-11-19T02:09:01.561Z,11.50
2022-11-19T02:10:14.903Z,11.95
2022-11-19T02:11:40.432Z,11.48
2022-11-19T02:18:50.470Z,13.00
2022-11-19T02:20:23.076Z,13.32
2022-11-19T02:21:56.199Z,11.75
2022-11-19T02:23:22.589Z,10.32
2022-11-19T02:24:54.087Z,11.18
2022-11-19T02:26:31.398Z,10.95
2022-11-19T02:28:22.766Z,12.27
2022-11-19T02:29:37.409Z,9.93
2022-11-19T02:30:49.234Z,10.15
2022-11-19T02:32:28.224Z,11.68
2022-11-19T02:33:43.571Z,10.85
2022-11-19T02:35:00.084Z,13.25
2022-11-19T02:36:39.275Z,12.00
2022-11-19T02:37:52.434Z,10.50
2022-11-19T02:39:02.754Z,11.27
2022-11-19T02:40:16.794Z,11.02
2022-11-19T02:41:45.833Z,9.65
2022-11-19T02:42:53.683Z,11.57
2022-11-19T02:44:19.614Z,10.35
2022-11-19T02:45:38.610Z,9.85
2022-11-19T02:46:42.263Z,10.43
2022-11-19T02:47:57.222Z,10.70
2022-11-19T02:49:07.260Z,10.88
2022-11-19T02:50:25.312Z,10.60
2022-11-19T02:51:29.838Z,9.73
2022-11-19T02:52:33.568Z,10.48
2022-11-19T02:53:40.772Z,9.80
2022-11-19T02:54:44.093Z,9.77
2022-11-19T02:56:08.901Z,10.50
2022-11-19T02:57:14.141Z,8.88
2022-11-19T02:58:40.135Z,10.00
2022-11-19T03:00:23.648Z,10.30
2022-11-19T03:01:48.962Z,9.98
2022-11-19T03:03:36.937Z,9.50
2022-11-19T03:04:40.366Z,10.45
2022-11-19T03:05:49.669Z,9.95
2022-11-19T03:06:53.806Z,11.27
2022-11-19T03:07:59.831Z,9.38
2022-11-19T03:09:02.279Z,9.57
2022-11-19T03:10:08.871Z,10.52
2022-11-19T03:11:30.462Z,9.95
2022-11-19T03:13:00.147Z,9.75
2022-11-19T03:14:32.948Z,9.18
2022-11-19T03:16:04.940Z,8.60
2022-11-19T03:17:24.456Z,9.25
2022-11-19T03:18:37.338Z,9.70
2022-11-19T03:20:09.811Z,9.00
2022-11-19T03:21:31.845Z,8.25
2022-11-19T03:22:45.901Z,9.98
2022-11-19T03:24:04.795Z,9.70
2022-11-19T03:25:16.432Z,9.07
2022-11-19T03:26:40.958Z,8.90
2022-11-19T03:27:51.293Z,8.77
2022-11-19T03:28:55.123Z,8.32
2022-11-19T03:30:01.159Z,8.52
2022-11-19T03:31:06.867Z,9.70
2022-11-19T03:32:22.506Z,9.10
2022-11-19T03:33:31.076Z,9.40
2022-11-19T03:34:35.167Z,10.00
2022-11-19T03:35:43.501Z,9.98
2022-11-19T03:36:50.957Z,9.60
2022-11-19T03:37:56.618Z,9.23
2022-11-19T03:39:02.920Z,9.23
2022-11-19T03:40:06.981Z,8.77
2022-11-19T03:41:12.597Z,10.15
2022-11-19T03:42:17.254Z,9.45
2022-11-19T03:43:22.545Z,10.25
2022-11-19T03:44:39.700Z,9.20
2022-11-19T03:45:44.356Z,9.20
2022-11-19T03:46:48.774Z,9.30
2022-11-19T03:47:52.122Z,9.90
2022-11-19T03:48:56.257Z,9.30
2022-11-19T03:50:09.558Z,9.23
2022-11-19T03:51:20.033Z,10.23
2022-11-19T03:52:22.758Z,10.90
2022-11-19T03:53:25.293Z,9.55
2022-11-19T03:54:27.018Z,10.18
2022-11-19T03:55:39.318Z,9.30
2022-11-19T03:56:41.987Z,9.80
2022-11-19T03:57:44.135Z,9.70
2022-11-19T03:58:47.358Z,10.32
2022-11-19T03:59:48.992Z,9.90
2022-11-19T04:00:50.679Z,10.02
2022-11-19T04:01:55.145Z,11.15
2022-11-19T04:02:57.053Z,9.73
2022-11-19T04:04:17.513Z,10.35
2022-11-19T04:05:19.135Z,10.25
2022-11-19T04:06:20.817Z,9.85
2022-11-19T04:07:23.927Z,10.10
2022-11-19T04:08:25.844Z,9.98
2022-11-19T04:09:27.493Z,10.02
2022-11-19T04:10:29.761Z,10.27
2022-11-19T04:11:31.545Z,10.20
2022-11-19T04:12:33.162Z,9.40
2022-11-19T04:13:34.775Z,9.70
2022-11-19T04:14:36.384Z,9.90
2022-11-19T04:15:38.022Z,10.70
2022-11-19T04:16:39.739Z,11.30
2022-11-19T04:17:41.456Z,11.25
2022-11-19T04:18:43.040Z,12.75
2022-11-19T04:19:45.121Z,11.45
2022-11-19T04:20:46.727Z,11.00
2022-11-19T04:21:48.527Z,10.25
2022-11-19T04:22:53.162Z,10.88
2022-11-19T04:23:54.759Z,9.98
2022-11-19T04:24:56.523Z,9.95
2022-11-19T04:25:58.204Z,9.63
2022-11-19T04:26:59.945Z,10.27
2022-11-19T04:28:01.593Z,9.18
2022-11-19T04:29:03.515Z,10.13
2022-11-19T04:30:05.894Z,13.30
2022-11-19T04:31:07.561Z,9.80
2022-11-19T04:32:09.436Z,9.60
2022-11-19T04:33:11.024Z,9.80
2022-11-19T04:34:12.960Z,9.45
2022-11-19T04:35:14.753Z,10.15
2022-11-19T04:36:19.552Z,9.05
2022-11-19T04:37:21.304Z,10.38
2022-11-19T04:38:23.100Z,9.23
2022-11-19T04:39:24.716Z,9.52
2022-11-19T04:40:26.323Z,8.77
2022-11-19T04:41:28.009Z,9.30
2022-11-19T04:42:29.582Z,10.23
2022-11-19T04:43:31.193Z,10.20
2022-11-19T04:44:33.063Z,10.05
2022-11-19T04:45:34.725Z,10.15
2022-11-19T04:46:36.573Z,9.85
2022-11-19T04:47:38.207Z,10.30
2022-11-19T04:48:39.825Z,9.50
2022-11-19T04:49:41.405Z,9.05
2022-11-19T04:50:43.042Z,10.00
2022-11-19T04:51:44.625Z,10.45
2022-11-19T04:52:46.312Z,10.10
2022-11-19T04:53:47.918Z,10.23
2022-11-19T04:54:49.666Z,9.55
2022-11-19T04:55:51.313Z,9.82
2022-11-19T04:56:53.209Z,9.45
2022-11-19T04:57:54.800Z,11.48
2022-11-19T04:58:56.474Z,11.25
2022-11-19T04:59:58.060Z,10.98
2022-11-19T05:00:59.802Z,13.43
2022-11-19T05:02:01.435Z,13.38
2022-11-19T05:03:03.317Z,11.07
2022-11-19T05:04:06.086Z,10.48
2022-11-19T05:05:08.259Z,11.95
2022-11-19T05:06:10.020Z,12.23
2022-11-19T05:07:14.028Z,12.10
2022-11-19T05:08:15.636Z,10.63
2022-11-19T05:09:17.641Z,12.63
2022-11-19T05:10:22.245Z,10.40
2022-11-19T05:11:23.866Z,11.02
2022-11-19T05:12:25.482Z,10.98
2022-11-19T05:13:27.095Z,12.45
2022-11-19T05:14:30.481Z,13.68
2022-11-19T05:15:34.672Z,11.50
2022-11-19T05:16:37.375Z,11.15
2022-11-19T05:17:39.017Z,10.52
2022-11-19T05:18:40.617Z,10.40
2022-11-19T05:19:42.354Z,9.50
2022-11-19T05:20:43.967Z,10.73
2022-11-19T05:21:45.792Z,10.15
2022-11-19T05:22:47.391Z,11.73
2022-11-19T05:23:48.995Z,9.73
2022-11-19T05:24:50.672Z,10.95
2022-11-19T05:25:52.811Z,10.02
2022-11-19T05:26:54.522Z,10.07
2022-11-19T05:27:56.194Z,10.10
2022-11-19T05:28:57.768Z,10.95
2022-11-19T05:29:59.393Z,9.88
2022-11-19T05:31:00.975Z,9.43
2022-11-19T05:32:02.884Z,8.50
2022-11-19T05:33:04.528Z,9.20
2022-11-19T05:34:06.241Z,10.18
2022-11-19T05:35:08.482Z,9.90
2022-11-19T05:36:10.153Z,9.05
2022-11-19T05:37:11.921Z,9.00
2022-11-19T05:38:16.293Z,9.90
2022-11-19T05:39:22.160Z,9.30
2022-11-19T05:40:24.193Z,8.88
2022-11-19T05:41:25.841Z,8.75
2022-11-19T05:42:27.435Z,8.88
2022-11-19T05:43:28.981Z,9.40
2022-11-19T05:44:30.709Z,9.77
2022-11-19T05:45:32.538Z,10.52
2022-11-19T05:46:34.235Z,9.40
2022-11-19T05:47:36.313Z,11.10
2022-11-19T05:48:37.929Z,11.07
2022-11-19T05:49:39.719Z,10.48
2022-11-19T05:50:42.660Z,9.70
2022-11-19T05:51:46.220Z,10.18
2022-11-19T05:52:47.877Z,9.55
2022-11-19T05:53:49.507Z,9.27
2022-11-19T05:54:51.190Z,9.65
2022-11-19T05:55:52.775Z,10.77
2022-11-19T05:56:54.344Z,9.35
2022-11-19T05:57:55.959Z,9.27
2022-11-19T05:58:57.553Z,10.65
2022-11-19T05:59:59.196Z,9.75
2022-11-19T06:01:00.861Z,11.05
2022-11-19T06:02:02.590Z,11.45
2022-11-19T06:03:04.400Z,12.68
2022-11-19T06:04:06.067Z,10.38
2022-11-19T06:05:08.161Z,9.75
2022-11-19T06:06:09.789Z,9.80
2022-11-19T06:07:11.486Z,10.13
2022-11-19T06:08:13.195Z,9.60
2022-11-19T06:09:17.966Z,9.77
2022-11-19T06:10:19.789Z,9.95
2022-11-19T06:11:40.095Z,9.32
2022-11-19T06:12:45.805Z,9.40
2022-11-19T06:13:50.881Z,9.02
2022-11-19T06:14:52.519Z,9.93
2022-11-19T06:15:54.170Z,10.07
2022-11-19T06:16:58.030Z,12.15
2022-11-19T06:17:59.655Z,12.02
2022-11-19T06:19:03.563Z,11.27
2022-11-19T06:20:08.589Z,11.43
2022-11-19T06:21:12.326Z,12.68
2022-11-19T06:22:14.191Z,9.77
2022-11-19T06:23:15.795Z,14.23
2022-11-19T06:24:18.228Z,12.30
2022-11-19T06:25:19.914Z,11.95
2022-11-19T06:26:25.837Z,11.10
2022-11-19T06:27:29.956Z,11.25
2022-11-19T06:28:31.622Z,10.55
2022-11-19T06:29:33.500Z,16.80
2022-11-19T06:30:35.231Z,11.48
2022-11-19T06:31:36.886Z,11.27
2022-11-19T06:32:38.622Z,10.82
2022-11-19T06:33:40.400Z,10.98
2022-11-19T06:34:42.233Z,12.00
2022-11-19T06:35:44.073Z,10.23
2022-11-19T06:36:50.371Z,13.70
2022-11-19T06:37:54.178Z,11.45
2022-11-19T06:38:55.864Z,10.52
2022-11-19T06:39:57.648Z,10.45
2022-11-19T06:40:59.365Z,10.60
2022-11-19T06:42:20.969Z,10.40
2022-11-19T06:43:22.551Z,11.27
2022-11-19T06:44:24.691Z,12.50
2022-11-19T06:45:26.501Z,10.50
2022-11-19T06:46:28.177Z,10.50
2022-11-19T06:47:31.277Z,10.55
2022-11-19T06:48:33.006Z,10.80
2022-11-19T06:49:35.496Z,10.77
2022-11-19T06:50:37.175Z,10.30
2022-11-19T06:51:38.773Z,11.48
2022-11-19T06:52:40.391Z,11.10
2022-11-19T06:53:42.081Z,10.77
2022-11-19T06:54:43.742Z,11.15
2022-11-19T06:55:45.376Z,11.90
2022-11-19T06:56:46.962Z,10.60
2022-11-19T06:57:48.647Z,11.65
2022-11-19T06:58:50.438Z,10.00
2022-11-19T06:59:52.059Z,10.38
2022-11-19T07:00:54.175Z,10.25
2022-11-19T07:01:55.907Z,10.98
2022-11-19T07:02:57.678Z,10.55
2022-11-19T07:03:59.698Z,10.43
2022-11-19T07:05:01.576Z,10.32
2022-11-19T07:06:04.814Z,10.80
2022-11-19T07:07:06.670Z,11.32
2022-11-19T07:08:08.571Z,10.60
2022-11-19T07:09:10.189Z,11.00
2022-11-19T07:10:12.265Z,11.55
2022-11-19T07:11:26.207Z,10.38
2022-11-19T07:12:27.879Z,9.57
2022-11-19T07:13:49.455Z,14.30
2022-11-19T07:14:51.326Z,10.90
2022-11-19T07:15:52.972Z,10.52
2022-11-19T07:16:56.290Z,9.75
2022-11-19T07:17:58.773Z,10.48
2022-11-19T07:19:02.313Z,11.00
2022-11-19T07:20:05.205Z,10.52
2022-11-19T07:21:06.798Z,10.02
2022-11-19T07:22:08.523Z,10.75
2022-11-19T07:23:10.872Z,14.25
2022-11-19T07:24:13.034Z,9.70
2022-11-19T07:25:14.814Z,10.27
2022-11-19T07:26:16.400Z,10.70
2022-11-19T07:27:18.144Z,10.75
2022-11-19T07:28:19.836Z,10.93
2022-11-19T07:29:21.949Z,11.95
2022-11-19T07:30:23.869Z,12.48
2022-11-19T07:31:25.525Z,12.20
2022-11-19T07:32:27.188Z,12.25
2022-11-19T07:33:29.115Z,11.63
2022-11-19T07:34:30.824Z,10.95
2022-11-19T07:35:32.407Z,11.68
2022-11-19T07:36:35.353Z,11.40
2022-11-19T07:37:37.870Z,11.93
2022-11-19T07:38:39.591Z,11.68
2022-11-19T07:39:46.744Z,11.25
2022-11-19T07:40:55.215Z,11.10
2022-11-19T07:42:15.683Z,10.85
2022-11-19T07:43:17.357Z,11.10
2022-11-19T07:44:19.104Z,10.10
2022-11-19T07:45:22.230Z,10.23
2022-11-19T07:46:24.123Z,10.10
2022-11-19T07:47:26.209Z,11.60
2022-11-19T07:48:27.851Z,10.45
2022-11-19T07:49:29.562Z,10.48
2022-11-19T07:50:31.518Z,11.23
2022-11-19T07:51:33.256Z,10.30
2022-11-19T07:52:35.012Z,10.50
2022-11-19T07:53:36.635Z,9.85
2022-11-19T07:54:38.309Z,11.10
2022-11-19T07:55:42.151Z,11.27
2022-11-19T07:56:43.922Z,11.00
2022-11-19T07:57:45.493Z,9.98
2022-11-19T07:58:49.940Z,10.48
2022-11-19T07:59:51.668Z,11.75
2022-11-19T08:00:53.295Z,9.73
2022-11-19T08:01:55.212Z,10.73
2022-11-19T08:02:56.902Z,10.95
2022-11-19T08:03:59.384Z,10.65
2022-11-19T08:05:01.098Z,10.52
2022-11-19T08:06:04.728Z,10.73
2022-11-19T08:07:08.379Z,10.55
2022-11-19T08:08:10.111Z,10.02
2022-11-19T08:09:11.970Z,11.90
2022-11-19T08:10:13.672Z,9.60
2022-11-19T08:11:16.927Z,9.25
2022-11-19T08:12:18.687Z,10.50
2022-11-19T08:13:20.395Z,10.65
2022-11-19T08:14:22.092Z,9.60
2022-11-19T08:15:23.718Z,9.20
2022-11-19T08:16:43.815Z,9.75
2022-11-19T08:18:04.226Z,9.95
2022-11-19T08:19:09.484Z,10.07
2022-11-19T08:20:11.387Z,10.55
2022-11-19T08:21:13.048Z,14.07
2022-11-19T08:22:14.731Z,10.10
2022-11-19T08:23:16.390Z,11.15
2022-11-19T08:24:20.896Z,9.82
2022-11-19T08:25:22.747Z,10.98
2022-11-19T08:26:24.541Z,9.60
2022-11-19T08:27:26.134Z,9.50
2022-11-19T08:28:28.357Z,8.68
2022-11-19T08:29:29.918Z,8.88
2022-11-19T08:30:33.414Z,8.55
2022-11-19T08:31:35.017Z,8.25
2022-11-19T08:32:37.266Z,8.35
2022-11-19T08:33:38.836Z,8.68
2022-11-19T08:34:40.451Z,9.07
2022-11-19T08:35:42.980Z,8.20
2022-11-19T08:36:44.711Z,9.48
2022-11-19T08:37:47.418Z,8.73
2022-11-19T08:38:49.044Z,11.65
2022-11-19T08:39:50.664Z,8.00
2022-11-19T08:41:13.737Z,7.72
2022-11-19T08:42:33.899Z,8.50
2022-11-19T08:43:35.472Z,8.52
2022-11-19T08:44:37.087Z,8.18
2022-11-19T08:45:39.446Z,7.82
2022-11-19T08:46:41.655Z,7.28
2022-11-19T08:47:43.236Z,6.75
2022-11-19T08:48:44.924Z,8.20
2022-11-19T08:49:46.523Z,7.20
2022-11-19T08:50:48.223Z,9.65
2022-11-19T08:51:49.833Z,7.88
2022-11-19T08:52:59.780Z,8.02
2022-11-19T08:54:01.560Z,11.85
2022-11-19T08:55:03.490Z,8.43
2022-11-19T08:56:06.299Z,7.13
2022-11-19T08:57:07.893Z,7.55
2022-11-19T08:58:11.595Z,7.97
2022-11-19T08:59:13.233Z,8.55
2022-11-19T09:00:15.473Z,7.85
2022-11-19T09:01:17.723Z,8.15
2022-11-19T09:02:19.352Z,7.85
2022-11-19T09:03:20.954Z,7.70
2022-11-19T09:04:22.895Z,7.78
2022-11-19T09:05:25.358Z,7.80
2022-11-19T09:06:27.096Z,7.88
2022-11-19T09:07:28.799Z,10.27
2022-11-19T09:08:31.292Z,19.60
2022-11-19T09:09:33.077Z,11.25
2022-11-19T09:10:35.329Z,8.25
2022-11-19T09:11:41.345Z,8.18
2022-11-19T09:12:44.581Z,9.10
2022-11-19T09:13:46.478Z,8.02
2022-11-19T09:14:48.120Z,9.20
2022-11-19T09:15:53.276Z,8.07
2022-11-19T09:16:54.912Z,7.90
2022-11-19T09:17:56.541Z,8.45
2022-11-19T09:18:58.136Z,8.70
2022-11-19T09:19:59.728Z,7.25
2022-11-19T09:21:01.325Z,7.38
2022-11-19T09:22:02.994Z,8.38
2022-11-19T09:23:04.812Z,7.85
2022-11-19T09:24:06.580Z,9.50
2022-11-19T09:25:08.985Z,8.20
2022-11-19T09:26:15.880Z,8.63
2022-11-19T09:27:17.850Z,8.15
2022-11-19T09:28:19.536Z,8.95
2022-11-19T09:29:21.212Z,9.55
2022-11-19T09:30:22.800Z,11.40
2022-11-19T09:31:24.422Z,12.25
2022-11-19T09:32:27.866Z,7.63
2022-11-19T09:33:30.726Z,8.60
2022-11-19T09:34:34.973Z,13.13
2022-11-19T09:35:36.560Z,7.70
2022-11-19T09:36:38.133Z,7.75
2022-11-19T09:37:39.753Z,12.63
2022-11-19T09:38:41.982Z,9.05
2022-11-19T09:39:43.555Z,8.00
2022-11-19T09:40:47.858Z,7.50
2022-11-19T09:42:22.341Z,7.55
2022-11-19T09:43:49.360Z,7.10
2022-11-19T09:44:57.239Z,8.50
2022-11-19T09:46:24.895Z,9.90
2022-11-19T09:47:52.752Z,7.47
2022-11-19T09:48:58.907Z,7.38
2022-11-19T09:50:16.563Z,7.78
2022-11-19T09:51:24.221Z,8.40
2022-11-19T09:52:30.090Z,8.60
2022-11-19T09:53:43.584Z,7.13
2022-11-19T09:54:50.716Z,7.85
2022-11-19T09:55:54.864Z,6.95
2022-11-19T09:57:03.182Z,7.50
2022-11-19T09:58:28.693Z,7.25
2022-11-19T09:59:40.603Z,7.78
2022-11-19T10:00:44.867Z,9.18
2022-11-19T10:02:12.400Z,7.45
2022-11-19T10:09:39.499Z,7.50
2022-11-19T10:22:08.012Z,6.03
2022-11-19T10:26:19.007Z,6.30
2022-11-19T10:45:13.080Z,6.57
2022-11-19T10:55:23.467Z,6.15
2022-11-19T11:01:49.938Z,11.65
2022-11-19T11:04:07.038Z,6.18
2022-11-19T11:05:52.820Z,6.20
2022-11-19T11:16:45.895Z,5.95
2022-11-19T11:20:24.224Z,6.35
2022-11-19T11:21:30.836Z,6.30
2022-11-19T11:22:33.051Z,6.78
2022-11-19T11:23:45.618Z,5.35
2022-11-19T11:24:47.289Z,4.30
2022-11-19T11:26:08.638Z,5.85
2022-11-19T11:27:33.305Z,6.00
2022-11-19T11:28:36.189Z,5.28
2022-11-19T11:29:37.963Z,6.35
2022-11-19T11:30:54.367Z,4.93
2022-11-19T11:31:56.106Z,4.63
2022-11-19T11:32:57.813Z,5.63
2022-11-19T11:34:02.216Z,5.57
2022-11-19T11:35:08.220Z,7.63
2022-11-19T11:36:15.424Z,6.03
2022-11-19T11:37:17.318Z,6.18
2022-11-19T11:38:23.999Z,5.30
2022-11-19T11:39:29.209Z,5.93
2022-11-19T11:40:31.356Z,5.80
2022-11-19T11:42:05.353Z,5.00
2022-11-19T11:43:00.807Z,9.85
2022-11-19T11:44:17.820Z,7.25
2022-11-19T11:45:35.027Z,6.93
2022-11-19T11:46:52.458Z,4.90
2022-11-19T11:47:57.252Z,10.35
2022-11-19T11:49:05.746Z,5.30
2022-11-19T11:50:21.516Z,6.03
2022-11-19T11:51:28.197Z,5.07
2022-11-19T11:52:34.665Z,4.47
2022-11-19T11:53:36.281Z,4.00
2022-11-19T11:54:53.453Z,4.60
2022-11-19T11:55:59.929Z,5.07
2022-11-19T11:57:20.301Z,4.28
2022-11-19T11:58:31.197Z,4.75
2022-11-19T11:59:33.172Z,4.68
2022-11-19T12:00:43.759Z,5.97
2022-11-19T12:01:54.574Z,6.22
2022-11-19T12:03:04.036Z,8.23
2022-11-19T12:04:11.261Z,5.93
2022-11-19T12:05:17.938Z,4.00
2022-11-19T12:06:22.518Z,5.10
2022-11-19T12:07:50.381Z,3.70
2022-11-19T12:09:03.561Z,3.73
2022-11-19T12:10:17.993Z,5.20
2022-11-19T12:11:56.537Z,3.93
2022-11-19T12:13:00.738Z,3.50
2022-11-19T12:14:11.364Z,3.30
2022-11-19T12:15:38.526Z,3.43
2022-11-19T12:17:06.477Z,4.43
2022-11-19T12:18:55.209Z,4.77
2022-11-19T12:20:09.711Z,3.90
2022-11-19T12:21:24.604Z,3.27
2022-11-19T12:22:29.181Z,4.40
2022-11-19T12:24:01.092Z,3.37
2022-11-19T12:25:20.520Z,4.23
2022-11-19T12:26:54.228Z,3.40
2022-11-19T12:28:30.917Z,4.37
2022-11-19T12:29:42.865Z,2.80
2022-11-19T12:31:08.625Z,2.57
2022-11-19T12:32:29.050Z,3.23
2022-11-19T12:33:55.790Z,2.90
2022-11-19T12:35:12.732Z,3.03
2022-11-19T12:36:28.511Z,3.57
2022-11-19T12:37:32.727Z,2.97
2022-11-19T12:39:02.236Z,3.47
2022-11-19T12:40:38.849Z,3.13
2022-11-19T12:42:07.289Z,3.03
2022-11-19T12:43:33.609Z,5.97
2022-11-19T12:44:58.919Z,5.72
2022-11-19T12:46:38.132Z,3.55
2022-11-19T12:48:06.859Z,2.45
2022-11-19T12:49:20.954Z,2.95
2022-11-19T12:50:29.134Z,4.10
2022-11-19T12:51:58.449Z,3.38
2022-11-19T12:53:31.495Z,3.60
2022-11-19T12:55:04.460Z,3.00
2022-11-19T12:56:33.760Z,3.45
2022-11-19T12:57:45.562Z,2.53
2022-11-19T12:58:57.030Z,3.20
2022-11-19T13:00:19.869Z,2.60
2022-11-19T13:01:25.451Z,3.17
2022-11-19T13:02:32.283Z,3.03
2022-11-19T13:04:02.223Z,3.47
2022-11-19T13:05:18.024Z,3.88
2022-11-19T13:06:27.206Z,2.72
2022-11-19T13:07:40.239Z,3.38
2022-11-19T13:09:01.910Z,3.33
2022-11-19T13:10:16.487Z,3.10
2022-11-19T13:11:22.496Z,4.25
2022-11-19T13:12:31.883Z,3.63
2022-11-19T13:13:38.664Z,3.22
2022-11-19T13:14:44.526Z,2.90
2022-11-19T13:15:57.069Z,4.90
2022-11-19T13:17:00.174Z,4.07
2022-11-19T13:18:05.531Z,3.88
2022-11-19T13:19:22.597Z,3.72
2022-11-19T13:20:24.355Z,3.30
2022-11-19T13:21:44.345Z,3.10
2022-11-19T13:22:47.869Z,3.13
2022-11-19T13:23:52.310Z,3.38
2022-11-19T13:25:01.786Z,3.25
2022-11-19T13:26:08.933Z,3.60
2022-11-19T13:27:20.132Z,2.83
2022-11-19T13:28:37.815Z,2.80
2022-11-19T13:29:42.149Z,3.72
2022-11-19T13:30:47.036Z,3.60
2022-11-19T13:31:58.851Z,3.45
2022-11-19T13:33:28.041Z,5.30
2022-11-19T13:34:40.473Z,3.50
2022-11-19T13:35:47.222Z,3.80
2022-11-19T13:37:15.905Z,3.63
2022-11-19T13:38:43.691Z,3.85
2022-11-19T13:39:57.412Z,4.28
2022-11-19T13:41:13.104Z,4.10
2022-11-19T13:42:37.239Z,5.35
2022-11-19T13:43:58.152Z,4.70
2022-11-19T13:44:59.957Z,3.30
2022-11-19T13:46:18.121Z,4.70
2022-11-19T13:47:28.144Z,4.55
2022-11-19T13:48:39.558Z,3.55
2022-11-19T13:49:48.104Z,4.35
2022-11-19T13:50:52.253Z,4.03
2022-11-19T13:51:55.503Z,3.13
2022-11-19T13:53:13.954Z,3.60
2022-11-19T13:54:24.214Z,5.20
2022-11-19T13:55:28.549Z,3.35
2022-11-19T13:56:46.726Z,8.23
2022-11-19T13:57:48.890Z,3.35
2022-11-19T13:58:54.347Z,20.17
2022-11-19T14:00:08.161Z,8.25
2022-11-19T14:01:15.568Z,3.38
2022-11-19T14:02:35.798Z,3.30
2022-11-19T14:04:05.315Z,3.47
2022-11-19T14:05:38.334Z,3.40
2022-11-19T14:06:56.327Z,7.80
2022-11-19T14:08:04.091Z,5.25
2022-11-19T14:09:17.567Z,4.35
2022-11-19T14:10:32.003Z,3.13
2022-11-19T14:11:51.890Z,3.50
2022-11-19T14:13:11.374Z,3.97
2022-11-19T14:14:57.470Z,2.80
2022-11-19T14:16:53.523Z,3.80
2022-11-19T14:18:35.474Z,2.47
2022-11-19T14:20:10.260Z,3.28
2022-11-19T14:21:54.392Z,3.38
2022-11-19T14:23:15.883Z,3.58
2022-11-19T14:24:44.749Z,3.38
2022-11-19T14:26:09.582Z,3.63
2022-11-19T14:27:19.488Z,3.60
2022-11-19T14:28:50.365Z,7.85
2022-11-19T14:30:14.784Z,2.78
2022-11-19T14:31:19.050Z,3.30
2022-11-19T14:32:33.721Z,3.95
2022-11-19T14:33:47.438Z,11.65
2022-11-19T14:35:01.099Z,8.93
2022-11-19T14:36:13.246Z,4.30
2022-11-19T14:37:26.872Z,3.78
2022-11-19T14:38:36.321Z,3.55
2022-11-19T14:39:43.853Z,2.67
2022-11-19T14:40:46.058Z,3.47
2022-11-19T14:42:07.623Z,3.22
2022-11-19T14:43:27.681Z,4.63
2022-11-19T14:44:33.923Z,4.10
2022-11-19T14:45:35.546Z,3.72
2022-11-19T14:46:48.529Z,3.53
2022-11-19T14:47:50.188Z,4.00
2022-11-19T14:48:56.514Z,4.80
2022-11-19T14:49:59.511Z,4.75
2022-11-19T14:51:11.095Z,3.47
2022-11-19T14:52:28.132Z,4.95
2022-11-19T14:53:30.419Z,3.65
2022-11-19T14:54:40.220Z,3.90
2022-11-19T14:55:41.871Z,3.50
2022-11-19T14:56:48.672Z,3.45
2022-11-19T14:57:55.269Z,3.33
2022-11-19T14:59:14.729Z,3.67
2022-11-19T15:00:17.530Z,3.75
2022-11-19T15:01:21.411Z,4.30
2022-11-19T15:02:29.220Z,4.95
2022-11-19T15:03:31.050Z,4.30
2022-11-19T15:04:41.975Z,8.00
2022-11-19T15:05:46.308Z,4.20
2022-11-19T15:06:48.497Z,5.10
2022-11-19T15:07:56.167Z,5.45
2022-11-19T15:09:00.559Z,5.10
2022-11-19T15:10:22.391Z,6.50
2022-11-19T15:11:24.049Z,5.10
2022-11-19T15:12:47.928Z,8.85
2022-11-19T15:14:29.769Z,5.35
2022-11-19T15:15:36.913Z,6.53
2022-11-19T15:16:39.735Z,7.82
2022-11-19T15:17:41.416Z,8.63
2022-11-19T15:18:42.995Z,10.35
2022-11-19T15:20:13.752Z,13.77
2022-11-19T15:21:24.244Z,7.28
2022-11-19T15:22:49.375Z,7.10
2022-11-19T15:24:15.692Z,6.13
2022-11-19T15:25:32.256Z,6.60
2022-11-19T15:26:48.856Z,7.35
2022-11-19T15:28:31.615Z,6.95
2022-11-19T15:29:42.322Z,6.80
2022-11-19T15:30:55.866Z,5.53
2022-11-19T15:32:12.228Z,6.78
2022-11-19T15:33:26.892Z,6.45
2022-11-19T15:34:49.032Z,9.15
2022-11-19T15:36:18.882Z,7.88
2022-11-19T15:37:27.611Z,5.90
2022-11-19T15:38:39.667Z,6.15
2022-11-19T15:39:50.190Z,9.00
2022-11-19T15:41:02.220Z,17.55
2022-11-19T15:42:07.108Z,20.65
2022-11-19T15:43:14.477Z,29.25
2022-11-19T15:44:19.000Z,30.50
2022-11-19T15:45:23.738Z,26.80
2022-11-19T15:46:42.663Z,30.23
2022-11-19T15:48:08.699Z,24.38
2022-11-19T15:49:10.237Z,19.88
2022-11-19T15:50:23.051Z,17.00
2022-11-19T15:51:24.810Z,15.85
2022-11-19T15:52:30.736Z,20.77
2022-11-19T15:53:32.404Z,21.45
2022-11-19T15:54:35.481Z,18.02
2022-11-19T15:55:37.716Z,15.95
2022-11-19T15:56:47.496Z,15.10
2022-11-19T15:57:53.622Z,21.50
2022-11-19T15:58:58.630Z,19.60
2022-11-19T16:00:02.083Z,13.88
2022-11-19T16:01:04.333Z,14.23
2022-11-19T16:02:19.818Z,10.88
2022-11-19T16:03:22.097Z,9.07
2022-11-19T16:04:28.572Z,9.27
2022-11-19T16:05:32.714Z,10.77
2022-11-19T16:06:35.947Z,12.35
2022-11-19T16:07:37.703Z,8.13
2022-11-19T16:08:39.385Z,6.93
2022-11-19T16:09:41.052Z,8.00
2022-11-19T16:10:46.771Z,6.65
2022-11-19T16:12:07.618Z,6.97